sensor_id;sensor_type;location;lat;lon;timestamp;P1;durP1;ratioP1;P2;durP2;ratioP2
3875;SDS011;1953;51.222;6.624;2022-07-10T00:02:59;2.60;;;1.60;;
3875;SDS011;1953;51.222;6.624;2022-07-10T00:07:41;4.93;;;2.23;;
3875;SDS011;1953;51.222;6.624;2022-07-10T00:12:24;3.50;;;1.93;;
3875;SDS011;1953;51.222;6.624;2022-07-10T00:17:07;8.40;;;2.60;;
3875;SDS011;1953;51.222;6.624;2022-07-10T00:21:50;3.57;;;2.20;;
3875;SDS011;1953;51.222;6.624;2022-07-10T00:26:33;3.53;;;1.90;;
3875;SDS011;1953;51.222;6.624;2022-07-10T00:31:15;5.17;;;2.33;;
3875;SDS011;1953;51.222;6.624;2022-07-10T00:35:58;5.57;;;2.60;;
3875;SDS011;1953;51.222;6.624;2022-07-10T00:40:42;6.63;;;2.50;;
3875;SDS011;1953;51.222;6.624;2022-07-10T00:45:24;6.40;;;2.50;;
3875;SDS011;1953;51.222;6.624;2022-07-10T00:50:07;6.73;;;2.30;;
3875;SDS011;1953;51.222;6.624;2022-07-10T00:54:50;7.10;;;2.80;;
3875;SDS011;1953;51.222;6.624;2022-07-10T00:59:34;5.00;;;2.83;;
3875;SDS011;1953;51.222;6.624;2022-07-10T01:04:17;7.20;;;2.23;;
3875;SDS011;1953;51.222;6.624;2022-07-10T01:08:59;8.10;;;2.70;;
3875;SDS011;1953;51.222;6.624;2022-07-10T01:13:42;8.70;;;2.80;;
3875;SDS011;1953;51.222;6.624;2022-07-10T01:18:26;3.63;;;2.53;;
3875;SDS011;1953;51.222;6.624;2022-07-10T01:23:10;12.40;;;2.87;;
3875;SDS011;1953;51.222;6.624;2022-07-10T01:27:53;7.93;;;2.40;;
3875;SDS011;1953;51.222;6.624;2022-07-10T01:32:36;6.17;;;2.80;;
3875;SDS011;1953;51.222;6.624;2022-07-10T01:37:19;8.37;;;2.43;;
3875;SDS011;1953;51.222;6.624;2022-07-10T01:42:03;5.27;;;2.43;;
3875;SDS011;1953;51.222;6.624;2022-07-10T01:46:46;9.70;;;2.90;;
3875;SDS011;1953;51.222;6.624;2022-07-10T01:51:29;5.50;;;2.50;;
3875;SDS011;1953;51.222;6.624;2022-07-10T01:56:12;6.77;;;2.40;;
3875;SDS011;1953;51.222;6.624;2022-07-10T02:00:57;9.83;;;2.40;;
3875;SDS011;1953;51.222;6.624;2022-07-10T02:05:39;6.10;;;2.57;;
3875;SDS011;1953;51.222;6.624;2022-07-10T02:10:22;3.70;;;2.37;;
3875;SDS011;1953;51.222;6.624;2022-07-10T02:15:05;10.83;;;2.70;;
3875;SDS011;1953;51.222;6.624;2022-07-10T02:19:50;10.20;;;2.33;;
3875;SDS011;1953;51.222;6.624;2022-07-10T02:24:32;8.93;;;3.07;;
3875;SDS011;1953;51.222;6.624;2022-07-10T02:29:14;5.10;;;2.50;;
3875;SDS011;1953;51.222;6.624;2022-07-10T02:33:58;5.67;;;2.90;;
3875;SDS011;1953;51.222;6.624;2022-07-10T02:38:41;6.63;;;2.83;;
3875;SDS011;1953;51.222;6.624;2022-07-10T02:43:24;5.23;;;2.73;;
3875;SDS011;1953;51.222;6.624;2022-07-10T02:48:06;4.57;;;2.60;;
3875;SDS011;1953;51.222;6.624;2022-07-10T02:52:49;6.97;;;3.00;;
3875;SDS011;1953;51.222;6.624;2022-07-10T02:57:33;10.40;;;2.80;;
3875;SDS011;1953;51.222;6.624;2022-07-10T03:02:15;13.10;;;3.10;;
3875;SDS011;1953;51.222;6.624;2022-07-10T03:06:58;5.87;;;3.13;;
3875;SDS011;1953;51.222;6.624;2022-07-10T03:11:40;6.67;;;2.87;;
3875;SDS011;1953;51.222;6.624;2022-07-10T03:16:24;6.33;;;3.10;;
3875;SDS011;1953;51.222;6.624;2022-07-10T03:21:06;6.87;;;2.90;;
3875;SDS011;1953;51.222;6.624;2022-07-10T03:25:49;8.90;;;3.77;;
3875;SDS011;1953;51.222;6.624;2022-07-10T03:30:31;9.43;;;3.67;;
3875;SDS011;1953;51.222;6.624;2022-07-10T03:35:15;9.70;;;3.67;;
3875;SDS011;1953;51.222;6.624;2022-07-10T03:39:58;13.07;;;4.00;;
3875;SDS011;1953;51.222;6.624;2022-07-10T03:44:40;6.27;;;3.80;;
3875;SDS011;1953;51.222;6.624;2022-07-10T03:49:23;10.53;;;4.20;;
3875;SDS011;1953;51.222;6.624;2022-07-10T03:54:06;10.53;;;3.33;;
3875;SDS011;1953;51.222;6.624;2022-07-10T03:58:49;11.10;;;4.50;;
3875;SDS011;1953;51.222;6.624;2022-07-10T04:03:31;11.80;;;4.10;;
3875;SDS011;1953;51.222;6.624;2022-07-10T04:08:14;7.20;;;3.80;;
3875;SDS011;1953;51.222;6.624;2022-07-10T04:12:58;12.90;;;4.70;;
3875;SDS011;1953;51.222;6.624;2022-07-10T04:17:41;10.47;;;4.00;;
3875;SDS011;1953;51.222;6.624;2022-07-10T04:22:23;9.63;;;4.20;;
3875;SDS011;1953;51.222;6.624;2022-07-10T04:27:06;7.83;;;4.13;;
3875;SDS011;1953;51.222;6.624;2022-07-10T04:31:49;9.03;;;4.40;;
3875;SDS011;1953;51.222;6.624;2022-07-10T04:36:32;12.53;;;4.10;;
3875;SDS011;1953;51.222;6.624;2022-07-10T04:41:14;9.90;;;4.10;;
3875;SDS011;1953;51.222;6.624;2022-07-10T04:45:57;15.47;;;4.30;;
3875;SDS011;1953;51.222;6.624;2022-07-10T04:50:41;11.70;;;3.90;;
3875;SDS011;1953;51.222;6.624;2022-07-10T04:55:23;7.97;;;4.30;;
3875;SDS011;1953;51.222;6.624;2022-07-10T05:00:06;8.10;;;4.70;;
3875;SDS011;1953;51.222;6.624;2022-07-10T05:04:50;9.20;;;4.53;;
3875;SDS011;1953;51.222;6.624;2022-07-10T05:09:34;14.50;;;4.73;;
3875;SDS011;1953;51.222;6.624;2022-07-10T05:14:16;6.93;;;4.47;;
3875;SDS011;1953;51.222;6.624;2022-07-10T05:18:58;8.03;;;4.50;;
3875;SDS011;1953;51.222;6.624;2022-07-10T05:23:41;9.97;;;4.97;;
3875;SDS011;1953;51.222;6.624;2022-07-10T05:28:25;9.43;;;4.70;;
3875;SDS011;1953;51.222;6.624;2022-07-10T05:33:07;9.27;;;4.30;;
3875;SDS011;1953;51.222;6.624;2022-07-10T05:37:50;7.50;;;4.00;;
3875;SDS011;1953;51.222;6.624;2022-07-10T05:42:33;10.00;;;4.73;;
3875;SDS011;1953;51.222;6.624;2022-07-10T05:47:17;12.50;;;4.00;;
3875;SDS011;1953;51.222;6.624;2022-07-10T05:52:00;6.50;;;4.10;;
3875;SDS011;1953;51.222;6.624;2022-07-10T05:56:42;8.93;;;4.10;;
3875;SDS011;1953;51.222;6.624;2022-07-10T06:01:25;7.27;;;3.67;;
3875;SDS011;1953;51.222;6.624;2022-07-10T06:06:09;6.97;;;3.73;;
3875;SDS011;1953;51.222;6.624;2022-07-10T06:10:55;14.20;;;4.20;;
3875;SDS011;1953;51.222;6.624;2022-07-10T06:15:38;8.80;;;4.13;;
3875;SDS011;1953;51.222;6.624;2022-07-10T06:20:20;8.40;;;3.60;;
3875;SDS011;1953;51.222;6.624;2022-07-10T06:25:05;6.70;;;3.83;;
3875;SDS011;1953;51.222;6.624;2022-07-10T06:29:49;8.87;;;4.10;;
3875;SDS011;1953;51.222;6.624;2022-07-10T06:34:31;5.50;;;3.40;;
3875;SDS011;1953;51.222;6.624;2022-07-10T06:39:14;6.40;;;3.63;;
3875;SDS011;1953;51.222;6.624;2022-07-10T06:43:58;13.00;;;3.60;;
3875;SDS011;1953;51.222;6.624;2022-07-10T06:48:41;8.50;;;3.13;;
3875;SDS011;1953;51.222;6.624;2022-07-10T06:53:24;6.43;;;3.33;;
3875;SDS011;1953;51.222;6.624;2022-07-10T06:58:07;10.13;;;3.20;;
3875;SDS011;1953;51.222;6.624;2022-07-10T07:02:52;16.63;;;3.30;;
3875;SDS011;1953;51.222;6.624;2022-07-10T07:07:37;9.83;;;3.50;;
3875;SDS011;1953;51.222;6.624;2022-07-10T07:12:19;12.40;;;3.80;;
3875;SDS011;1953;51.222;6.624;2022-07-10T07:17:03;9.70;;;3.70;;
3875;SDS011;1953;51.222;6.624;2022-07-10T07:21:48;6.70;;;3.13;;
3875;SDS011;1953;51.222;6.624;2022-07-10T07:26:48;13.70;;;3.17;;
3875;SDS011;1953;51.222;6.624;2022-07-10T07:31:31;8.40;;;3.33;;
3875;SDS011;1953;51.222;6.624;2022-07-10T07:36:13;6.87;;;2.80;;
3875;SDS011;1953;51.222;6.624;2022-07-10T07:40:57;9.00;;;2.90;;
3875;SDS011;1953;51.222;6.624;2022-07-10T07:45:39;9.87;;;2.77;;
3875;SDS011;1953;51.222;6.624;2022-07-10T07:50:22;7.67;;;2.60;;
3875;SDS011;1953;51.222;6.624;2022-07-10T07:55:07;10.10;;;3.10;;
3875;SDS011;1953;51.222;6.624;2022-07-10T07:59:52;8.90;;;2.97;;
3875;SDS011;1953;51.222;6.624;2022-07-10T08:04:34;11.27;;;3.57;;
3875;SDS011;1953;51.222;6.624;2022-07-10T08:09:17;12.70;;;3.93;;
3875;SDS011;1953;51.222;6.624;2022-07-10T08:13:59;9.03;;;3.07;;
3875;SDS011;1953;51.222;6.624;2022-07-10T08:18:43;7.70;;;3.23;;
3875;SDS011;1953;51.222;6.624;2022-07-10T08:23:26;7.67;;;3.33;;
3875;SDS011;1953;51.222;6.624;2022-07-10T08:28:08;7.10;;;3.00;;
3875;SDS011;1953;51.222;6.624;2022-07-10T08:32:52;10.83;;;3.03;;
3875;SDS011;1953;51.222;6.624;2022-07-10T08:37:39;10.53;;;2.87;;
3875;SDS011;1953;51.222;6.624;2022-07-10T08:42:23;8.10;;;3.17;;
3875;SDS011;1953;51.222;6.624;2022-07-10T08:47:06;14.00;;;3.50;;
3875;SDS011;1953;51.222;6.624;2022-07-10T08:51:51;7.63;;;3.80;;
3875;SDS011;1953;51.222;6.624;2022-07-10T08:56:39;5.77;;;2.90;;
3875;SDS011;1953;51.222;6.624;2022-07-10T09:01:23;7.97;;;3.37;;
3875;SDS011;1953;51.222;6.624;2022-07-10T09:06:06;11.13;;;3.57;;
3875;SDS011;1953;51.222;6.624;2022-07-10T09:10:48;7.73;;;3.60;;
3875;SDS011;1953;51.222;6.624;2022-07-10T09:15:32;6.50;;;3.10;;
3875;SDS011;1953;51.222;6.624;2022-07-10T09:20:23;10.13;;;3.23;;
3875;SDS011;1953;51.222;6.624;2022-07-10T09:25:11;7.80;;;3.40;;
3875;SDS011;1953;51.222;6.624;2022-07-10T09:29:54;7.37;;;3.30;;
3875;SDS011;1953;51.222;6.624;2022-07-10T09:34:40;7.30;;;3.60;;
3875;SDS011;1953;51.222;6.624;2022-07-10T09:39:23;10.37;;;5.17;;
3875;SDS011;1953;51.222;6.624;2022-07-10T09:44:06;14.10;;;4.67;;
3875;SDS011;1953;51.222;6.624;2022-07-10T09:49:00;15.30;;;5.27;;
3875;SDS011;1953;51.222;6.624;2022-07-10T09:53:51;7.30;;;4.80;;
3875;SDS011;1953;51.222;6.624;2022-07-10T09:58:34;9.10;;;5.17;;
3875;SDS011;1953;51.222;6.624;2022-07-10T10:03:17;7.60;;;5.63;;
3875;SDS011;1953;51.222;6.624;2022-07-10T10:08:04;4.83;;;3.90;;
3875;SDS011;1953;51.222;6.624;2022-07-10T10:12:54;3.20;;;2.90;;
3875;SDS011;1953;51.222;6.624;2022-07-10T10:17:43;3.50;;;2.47;;
3875;SDS011;1953;51.222;6.624;2022-07-10T10:22:29;4.10;;;2.43;;
3875;SDS011;1953;51.222;6.624;2022-07-10T10:27:12;4.60;;;2.93;;
3875;SDS011;1953;51.222;6.624;2022-07-10T10:31:57;6.57;;;2.90;;
3875;SDS011;1953;51.222;6.624;2022-07-10T10:36:43;3.50;;;3.00;;
3875;SDS011;1953;51.222;6.624;2022-07-10T10:41:27;4.53;;;3.23;;
3875;SDS011;1953;51.222;6.624;2022-07-10T10:46:23;3.40;;;2.90;;
3875;SDS011;1953;51.222;6.624;2022-07-10T10:51:07;5.20;;;3.47;;
3875;SDS011;1953;51.222;6.624;2022-07-10T11:01:05;5.17;;;3.77;;
3875;SDS011;1953;51.222;6.624;2022-07-10T11:06:06;5.63;;;3.70;;
3875;SDS011;1953;51.222;6.624;2022-07-10T11:10:49;6.87;;;3.73;;
3875;SDS011;1953;51.222;6.624;2022-07-10T11:15:32;10.70;;;3.63;;
3875;SDS011;1953;51.222;6.624;2022-07-10T11:20:16;6.47;;;4.33;;
3875;SDS011;1953;51.222;6.624;2022-07-10T11:25:06;5.50;;;3.93;;
3875;SDS011;1953;51.222;6.624;2022-07-10T11:29:58;4.80;;;3.47;;
3875;SDS011;1953;51.222;6.624;2022-07-10T11:34:41;4.33;;;2.77;;
3875;SDS011;1953;51.222;6.624;2022-07-10T11:39:24;3.70;;;2.77;;
3875;SDS011;1953;51.222;6.624;2022-07-10T11:44:12;3.00;;;2.50;;
3875;SDS011;1953;51.222;6.624;2022-07-10T11:48:55;4.37;;;2.60;;
3875;SDS011;1953;51.222;6.624;2022-07-10T11:53:38;5.23;;;3.03;;
3875;SDS011;1953;51.222;6.624;2022-07-10T11:58:21;3.23;;;2.93;;
3875;SDS011;1953;51.222;6.624;2022-07-10T12:04:01;7.30;;;3.23;;
3875;SDS011;1953;51.222;6.624;2022-07-10T12:08:44;7.17;;;3.90;;
3875;SDS011;1953;51.222;6.624;2022-07-10T12:13:27;5.50;;;3.93;;
3875;SDS011;1953;51.222;6.624;2022-07-10T12:18:14;7.00;;;3.90;;
3875;SDS011;1953;51.222;6.624;2022-07-10T12:23:00;6.97;;;4.30;;
3875;SDS011;1953;51.222;6.624;2022-07-10T12:27:43;9.10;;;3.80;;
3875;SDS011;1953;51.222;6.624;2022-07-10T12:32:25;8.80;;;4.50;;
3875;SDS011;1953;51.222;6.624;2022-07-10T12:37:09;8.17;;;3.93;;
3875;SDS011;1953;51.222;6.624;2022-07-10T12:41:54;8.07;;;4.40;;
3875;SDS011;1953;51.222;6.624;2022-07-10T12:46:38;5.00;;;3.90;;
3875;SDS011;1953;51.222;6.624;2022-07-10T12:51:24;9.53;;;4.23;;
3875;SDS011;1953;51.222;6.624;2022-07-10T12:56:07;6.20;;;3.60;;
3875;SDS011;1953;51.222;6.624;2022-07-10T13:00:51;11.67;;;4.10;;
3875;SDS011;1953;51.222;6.624;2022-07-10T13:05:35;6.80;;;3.30;;
3875;SDS011;1953;51.222;6.624;2022-07-10T13:10:19;6.10;;;3.60;;
3875;SDS011;1953;51.222;6.624;2022-07-10T13:15:01;4.60;;;3.37;;
3875;SDS011;1953;51.222;6.624;2022-07-10T13:19:46;4.70;;;2.93;;
3875;SDS011;1953;51.222;6.624;2022-07-10T13:24:28;8.00;;;3.60;;
3875;SDS011;1953;51.222;6.624;2022-07-10T13:29:11;9.00;;;3.10;;
3875;SDS011;1953;51.222;6.624;2022-07-10T13:33:53;5.30;;;3.20;;
3875;SDS011;1953;51.222;6.624;2022-07-10T13:38:38;3.50;;;3.20;;
3875;SDS011;1953;51.222;6.624;2022-07-10T13:43:21;4.50;;;2.50;;
3875;SDS011;1953;51.222;6.624;2022-07-10T13:48:07;4.03;;;2.57;;
3875;SDS011;1953;51.222;6.624;2022-07-10T13:52:50;3.33;;;3.03;;
3875;SDS011;1953;51.222;6.624;2022-07-10T13:57:34;3.43;;;2.50;;
3875;SDS011;1953;51.222;6.624;2022-07-10T14:02:17;2.80;;;2.60;;
3875;SDS011;1953;51.222;6.624;2022-07-10T14:06:59;3.47;;;2.30;;
3875;SDS011;1953;51.222;6.624;2022-07-10T14:11:42;2.10;;;2.00;;
3875;SDS011;1953;51.222;6.624;2022-07-10T14:16:26;2.43;;;2.17;;
3875;SDS011;1953;51.222;6.624;2022-07-10T14:21:08;4.70;;;2.30;;
3875;SDS011;1953;51.222;6.624;2022-07-10T14:25:51;3.97;;;2.40;;
3875;SDS011;1953;51.222;6.624;2022-07-10T14:30:35;3.90;;;2.67;;
3875;SDS011;1953;51.222;6.624;2022-07-10T14:35:19;2.73;;;2.33;;
3875;SDS011;1953;51.222;6.624;2022-07-10T14:40:02;2.17;;;2.00;;
3875;SDS011;1953;51.222;6.624;2022-07-10T14:44:45;6.63;;;2.73;;
3875;SDS011;1953;51.222;6.624;2022-07-10T14:49:28;3.37;;;2.47;;
3875;SDS011;1953;51.222;6.624;2022-07-10T14:54:12;2.80;;;2.60;;
3875;SDS011;1953;51.222;6.624;2022-07-10T14:58:54;3.77;;;3.20;;
3875;SDS011;1953;51.222;6.624;2022-07-10T15:03:37;3.10;;;2.80;;
3875;SDS011;1953;51.222;6.624;2022-07-10T15:08:19;3.20;;;2.90;;
3875;SDS011;1953;51.222;6.624;2022-07-10T15:13:03;3.93;;;3.40;;
3875;SDS011;1953;51.222;6.624;2022-07-10T15:17:46;3.80;;;2.80;;
3875;SDS011;1953;51.222;6.624;2022-07-10T15:22:28;2.93;;;2.60;;
3875;SDS011;1953;51.222;6.624;2022-07-10T15:27:12;3.73;;;2.90;;
3875;SDS011;1953;51.222;6.624;2022-07-10T15:31:56;3.27;;;2.97;;
3875;SDS011;1953;51.222;6.624;2022-07-10T15:36:38;3.93;;;3.00;;
3875;SDS011;1953;51.222;6.624;2022-07-10T15:41:21;5.30;;;2.90;;
3875;SDS011;1953;51.222;6.624;2022-07-10T15:46:03;3.00;;;2.30;;
3875;SDS011;1953;51.222;6.624;2022-07-10T15:50:49;4.80;;;2.63;;
3875;SDS011;1953;51.222;6.624;2022-07-10T15:55:31;2.67;;;2.47;;
3875;SDS011;1953;51.222;6.624;2022-07-10T16:00:13;3.00;;;2.27;;
3875;SDS011;1953;51.222;6.624;2022-07-10T16:04:56;2.93;;;2.50;;
3875;SDS011;1953;51.222;6.624;2022-07-10T16:09:40;4.63;;;2.97;;
3875;SDS011;1953;51.222;6.624;2022-07-10T16:14:22;3.10;;;2.60;;
3875;SDS011;1953;51.222;6.624;2022-07-10T16:19:05;2.70;;;2.50;;
3875;SDS011;1953;51.222;6.624;2022-07-10T16:23:48;4.60;;;2.83;;
3875;SDS011;1953;51.222;6.624;2022-07-10T16:28:33;4.90;;;3.20;;
3875;SDS011;1953;51.222;6.624;2022-07-10T16:33:15;3.70;;;3.00;;
3875;SDS011;1953;51.222;6.624;2022-07-10T16:37:58;5.73;;;3.40;;
3875;SDS011;1953;51.222;6.624;2022-07-10T16:42:40;7.07;;;3.40;;
3875;SDS011;1953;51.222;6.624;2022-07-10T16:47:24;4.93;;;3.47;;
3875;SDS011;1953;51.222;6.624;2022-07-10T16:52:07;4.67;;;3.50;;
3875;SDS011;1953;51.222;6.624;2022-07-10T16:56:49;8.90;;;3.03;;
3875;SDS011;1953;51.222;6.624;2022-07-10T17:01:32;5.70;;;3.60;;
3875;SDS011;1953;51.222;6.624;2022-07-10T17:06:16;7.00;;;3.97;;
3875;SDS011;1953;51.222;6.624;2022-07-10T17:10:58;4.50;;;2.77;;
3875;SDS011;1953;51.222;6.624;2022-07-10T17:15:41;3.43;;;2.63;;
3875;SDS011;1953;51.222;6.624;2022-07-10T17:20:23;6.70;;;3.20;;
3875;SDS011;1953;51.222;6.624;2022-07-10T17:25:07;4.43;;;3.00;;
3875;SDS011;1953;51.222;6.624;2022-07-10T17:29:50;3.93;;;2.87;;
3875;SDS011;1953;51.222;6.624;2022-07-10T17:34:33;3.90;;;2.63;;
3875;SDS011;1953;51.222;6.624;2022-07-10T17:39:16;2.00;;;1.90;;
3875;SDS011;1953;51.222;6.624;2022-07-10T17:44:00;5.37;;;2.43;;
3875;SDS011;1953;51.222;6.624;2022-07-10T17:48:42;2.80;;;2.37;;
3875;SDS011;1953;51.222;6.624;2022-07-10T17:53:25;4.43;;;2.53;;
3875;SDS011;1953;51.222;6.624;2022-07-10T17:58:07;5.30;;;2.37;;
3875;SDS011;1953;51.222;6.624;2022-07-10T18:02:51;3.10;;;2.57;;
3875;SDS011;1953;51.222;6.624;2022-07-10T18:07:33;6.53;;;2.60;;
3875;SDS011;1953;51.222;6.624;2022-07-10T18:12:16;2.60;;;2.40;;
3875;SDS011;1953;51.222;6.624;2022-07-10T18:16:58;4.93;;;2.50;;
3875;SDS011;1953;51.222;6.624;2022-07-10T18:21:42;2.23;;;2.13;;
3875;SDS011;1953;51.222;6.624;2022-07-10T18:26:25;3.33;;;2.43;;
3875;SDS011;1953;51.222;6.624;2022-07-10T18:31:08;2.40;;;2.10;;
3875;SDS011;1953;51.222;6.624;2022-07-10T18:35:53;3.37;;;2.27;;
3875;SDS011;1953;51.222;6.624;2022-07-10T18:40:36;2.30;;;2.10;;
3875;SDS011;1953;51.222;6.624;2022-07-10T18:45:19;3.77;;;2.27;;
3875;SDS011;1953;51.222;6.624;2022-07-10T18:50:02;4.30;;;2.33;;
3875;SDS011;1953;51.222;6.624;2022-07-10T18:54:45;2.43;;;2.23;;
3875;SDS011;1953;51.222;6.624;2022-07-10T18:59:29;2.90;;;2.00;;
3875;SDS011;1953;51.222;6.624;2022-07-10T19:04:11;5.33;;;2.37;;
3875;SDS011;1953;51.222;6.624;2022-07-10T19:08:54;3.00;;;2.50;;
3875;SDS011;1953;51.222;6.624;2022-07-10T19:13:36;3.83;;;2.70;;
3875;SDS011;1953;51.222;6.624;2022-07-10T19:18:21;4.70;;;2.50;;
3875;SDS011;1953;51.222;6.624;2022-07-10T19:23:03;3.20;;;2.37;;
3875;SDS011;1953;51.222;6.624;2022-07-10T19:27:46;4.80;;;2.10;;
3875;SDS011;1953;51.222;6.624;2022-07-10T19:32:29;10.07;;;2.70;;
3875;SDS011;1953;51.222;6.624;2022-07-10T19:37:12;3.10;;;2.30;;
3875;SDS011;1953;51.222;6.624;2022-07-10T19:41:55;2.90;;;2.17;;
3875;SDS011;1953;51.222;6.624;2022-07-10T19:46:37;5.00;;;2.57;;
3875;SDS011;1953;51.222;6.624;2022-07-10T19:51:20;3.40;;;2.43;;
3875;SDS011;1953;51.222;6.624;2022-07-10T19:56:04;2.87;;;2.60;;
3875;SDS011;1953;51.222;6.624;2022-07-10T20:00:47;3.37;;;2.17;;
3875;SDS011;1953;51.222;6.624;2022-07-10T20:05:31;5.33;;;2.70;;
3875;SDS011;1953;51.222;6.624;2022-07-10T20:10:15;2.07;;;1.97;;
3875;SDS011;1953;51.222;6.624;2022-07-10T20:14:58;4.83;;;2.40;;
3875;SDS011;1953;51.222;6.624;2022-07-10T20:19:41;4.27;;;2.80;;
3875;SDS011;1953;51.222;6.624;2022-07-10T20:24:23;5.30;;;2.30;;
3875;SDS011;1953;51.222;6.624;2022-07-10T20:29:08;4.77;;;3.07;;
3875;SDS011;1953;51.222;6.624;2022-07-10T20:33:51;3.03;;;2.50;;
3875;SDS011;1953;51.222;6.624;2022-07-10T20:38:35;4.50;;;2.47;;
3875;SDS011;1953;51.222;6.624;2022-07-10T20:43:18;4.93;;;2.70;;
3875;SDS011;1953;51.222;6.624;2022-07-10T20:48:00;2.87;;;2.60;;
3875;SDS011;1953;51.222;6.624;2022-07-10T20:52:44;6.20;;;2.70;;
3875;SDS011;1953;51.222;6.624;2022-07-10T20:57:27;4.03;;;3.00;;
3875;SDS011;1953;51.222;6.624;2022-07-10T21:02:09;4.57;;;2.97;;
3875;SDS011;1953;51.222;6.624;2022-07-10T21:06:52;4.57;;;2.70;;
3875;SDS011;1953;51.222;6.624;2022-07-10T21:11:36;4.60;;;3.00;;
3875;SDS011;1953;51.222;6.624;2022-07-10T21:16:19;3.63;;;3.00;;
3875;SDS011;1953;51.222;6.624;2022-07-10T21:21:01;2.80;;;2.60;;
3875;SDS011;1953;51.222;6.624;2022-07-10T21:25:44;6.57;;;3.20;;
3875;SDS011;1953;51.222;6.624;2022-07-10T21:30:28;5.67;;;3.50;;
3875;SDS011;1953;51.222;6.624;2022-07-10T21:35:10;3.50;;;3.20;;
3875;SDS011;1953;51.222;6.624;2022-07-10T21:39:53;4.07;;;3.00;;
3875;SDS011;1953;51.222;6.624;2022-07-10T21:44:35;5.47;;;3.30;;
3875;SDS011;1953;51.222;6.624;2022-07-10T21:49:19;8.07;;;3.23;;
3875;SDS011;1953;51.222;6.624;2022-07-10T21:54:01;10.87;;;3.90;;
3875;SDS011;1953;51.222;6.624;2022-07-10T21:58:44;3.77;;;3.30;;
3875;SDS011;1953;51.222;6.624;2022-07-10T22:03:27;6.30;;;3.43;;
3875;SDS011;1953;51.222;6.624;2022-07-10T22:08:10;4.73;;;3.60;;
3875;SDS011;1953;51.222;6.624;2022-07-10T22:12:53;5.53;;;3.93;;
3875;SDS011;1953;51.222;6.624;2022-07-10T22:17:36;7.97;;;3.73;;
3875;SDS011;1953;51.222;6.624;2022-07-10T22:22:20;4.50;;;3.27;;
3875;SDS011;1953;51.222;6.624;2022-07-10T22:27:04;9.50;;;3.80;;
3875;SDS011;1953;51.222;6.624;2022-07-10T22:31:47;4.10;;;3.70;;
3875;SDS011;1953;51.222;6.624;2022-07-10T22:36:29;7.00;;;3.70;;
3875;SDS011;1953;51.222;6.624;2022-07-10T22:41:12;7.37;;;4.60;;
3875;SDS011;1953;51.222;6.624;2022-07-10T22:45:56;4.40;;;3.57;;
3875;SDS011;1953;51.222;6.624;2022-07-10T22:50:39;7.93;;;3.90;;
3875;SDS011;1953;51.222;6.624;2022-07-10T22:55:22;5.40;;;4.00;;
3875;SDS011;1953;51.222;6.624;2022-07-10T23:00:05;6.00;;;3.80;;
3875;SDS011;1953;51.222;6.624;2022-07-10T23:04:50;5.60;;;4.80;;
3875;SDS011;1953;51.222;6.624;2022-07-10T23:09:32;7.30;;;4.50;;
3875;SDS011;1953;51.222;6.624;2022-07-10T23:14:14;7.80;;;4.33;;
3875;SDS011;1953;51.222;6.624;2022-07-10T23:18:57;7.53;;;4.90;;
3875;SDS011;1953;51.222;6.624;2022-07-10T23:23:41;6.93;;;4.77;;
3875;SDS011;1953;51.222;6.624;2022-07-10T23:28:23;7.30;;;4.67;;
3875;SDS011;1953;51.222;6.624;2022-07-10T23:33:06;6.33;;;4.77;;
3875;SDS011;1953;51.222;6.624;2022-07-10T23:37:48;6.30;;;4.30;;
3875;SDS011;1953;51.222;6.624;2022-07-10T23:42:32;7.80;;;5.00;;
3875;SDS011;1953;51.222;6.624;2022-07-10T23:47:14;9.53;;;4.27;;
3875;SDS011;1953;51.222;6.624;2022-07-10T23:51:57;5.73;;;4.30;;
3875;SDS011;1953;51.222;6.624;2022-07-10T23:56:39;7.90;;;4.63;;
